Time;durP1;ratioP1;P1;durP2;ratioP2;P2;SDS_P1;SDS_P2;PMS_P1;PMS_P2;Temp;Humidity;BMP_temperature;BMP_pressure;BME280_temperature;BME280_humidity;BME280_pressure;Samples;Min_cycle;Max_cycle;Signal;HPM_P1;HPM_P2
2021/12/09 00:01:00;;;;;;;1.20;1.20;;;6.70;99.90;;;;;;4996711;28;20224;-66
2021/12/09 00:03:28;;;;;;;1.40;1.33;;;6.70;99.90;;;;;;4995897;28;20230;-64
2021/12/09 00:05:57;;;;;;;1.50;1.40;;;6.70;99.90;;;;;;4997272;28;20213;-63
2021/12/09 00:08:26;;;;;;;1.20;1.20;;;6.70;99.90;;;;;;4993914;28;20482;-64
2021/12/09 00:10:53;;;;;;;1.10;1.10;;;6.70;99.90;;;;;;4996498;28;20257;-65
2021/12/09 00:13:23;;;;;;;1.47;1.43;;;6.70;99.90;;;;;;4996557;28;20199;-66
2021/12/09 00:15:50;;;;;;;1.80;1.70;;;6.60;99.90;;;;;;5001531;28;20265;-64
2021/12/09 00:18:18;;;;;;;1.93;1.80;;;6.60;99.90;;;;;;5012232;28;20206;-63
2021/12/09 00:20:45;;;;;;;1.97;1.87;;;6.60;99.90;;;;;;5003099;28;20776;-66
2021/12/09 00:23:12;;;;;;;2.00;1.90;;;6.50;99.90;;;;;;5007586;28;20703;-64
2021/12/09 00:25:39;;;;;;;1.87;1.77;;;6.50;99.90;;;;;;4998205;28;20294;-65
2021/12/09 00:28:07;;;;;;;2.00;1.90;;;6.50;99.90;;;;;;4996211;28;20286;-68
2021/12/09 00:30:36;;;;;;;1.70;1.60;;;6.40;99.90;;;;;;4997223;28;20225;-66
2021/12/09 00:33:06;;;;;;;1.90;1.80;;;6.40;99.90;;;;;;4993505;28;20198;-65
2021/12/09 00:35:43;;;;;;;1.80;1.70;;;6.40;99.90;;;;;;4995900;28;20230;-66
2021/12/09 00:38:19;;;;;;;1.83;1.73;;;6.40;99.90;;;;;;4993535;28;20206;-64
2021/12/09 00:40:46;;;;;;;2.00;1.90;;;6.30;99.90;;;;;;4993586;28;20304;-64
2021/12/09 00:43:13;;;;;;;1.90;1.80;;;6.30;99.90;;;;;;4995053;28;20245;-64
2021/12/09 00:45:41;;;;;;;1.70;1.60;;;6.30;99.90;;;;;;4999139;28;20265;-65
2021/12/09 00:48:08;;;;;;;1.90;1.80;;;6.20;99.90;;;;;;4996613;28;20230;-66
2021/12/09 00:50:35;;;;;;;1.60;1.50;;;6.30;99.90;;;;;;5001969;28;20299;-63
2021/12/09 00:53:02;;;;;;;1.83;1.73;;;6.40;99.90;;;;;;5005759;28;20669;-64
2021/12/09 00:55:29;;;;;;;1.83;1.73;;;6.30;99.90;;;;;;5008519;28;20206;-66
2021/12/09 00:57:56;;;;;;;2.10;2.00;;;6.30;99.90;;;;;;4991419;28;20217;-65
2021/12/09 01:00:24;;;;;;;2.00;1.90;;;6.30;99.90;;;;;;4995811;28;20297;-64
2021/12/09 01:02:52;;;;;;;2.17;2.03;;;6.20;99.90;;;;;;4996430;28;20304;-66
2021/12/09 01:05:19;;;;;;;1.77;1.67;;;6.20;99.90;;;;;;4995324;28;20194;-63
2021/12/09 01:07:46;;;;;;;2.20;2.10;;;6.20;99.90;;;;;;5001189;28;20229;-64
2021/12/09 01:10:15;;;;;;;1.93;1.83;;;6.30;99.90;;;;;;4993343;28;20206;-64
2021/12/09 01:12:42;;;;;;;1.60;1.50;;;6.30;99.90;;;;;;4993182;28;20312;-66
2021/12/09 01:15:15;;;;;;;1.63;1.53;;;6.30;99.90;;;;;;4993220;28;20747;-65
2021/12/09 01:17:43;;;;;;;1.90;1.80;;;6.50;99.90;;;;;;4992910;28;20289;-65
2021/12/09 01:20:15;;;;;;;1.80;1.70;;;6.40;99.90;;;;;;4993487;28;20280;-64
2021/12/09 01:22:43;;;;;;;2.07;1.93;;;6.30;99.90;;;;;;4992227;28;20226;-65
2021/12/09 01:25:11;;;;;;;1.70;1.60;;;6.40;99.90;;;;;;4992504;28;20217;-66
2021/12/09 01:27:41;;;;;;;1.90;1.80;;;6.40;99.90;;;;;;4993104;28;20206;-65
2021/12/09 01:30:13;;;;;;;1.80;1.70;;;6.60;99.90;;;;;;4994155;28;20213;-64
2021/12/09 01:32:47;;;;;;;1.90;1.80;;;6.50;99.90;;;;;;4994255;28;20261;-63
2021/12/09 01:35:17;;;;;;;1.80;1.70;;;6.40;99.90;;;;;;4996179;28;20201;-66
2021/12/09 01:37:45;;;;;;;2.00;1.80;;;6.40;99.90;;;;;;5013691;28;20205;-65
2021/12/09 01:40:12;;;;;;;1.40;1.40;;;6.40;99.90;;;;;;4997025;28;20297;-65
2021/12/09 01:42:39;;;;;;;1.90;1.80;;;6.30;99.90;;;;;;4993915;28;20269;-66
2021/12/09 01:45:08;;;;;;;1.90;1.80;;;6.30;99.90;;;;;;4993070;28;20232;-64
2021/12/09 01:47:34;;;;;;;1.90;1.80;;;6.30;99.90;;;;;;4992889;28;20220;-66
2021/12/09 01:50:02;;;;;;;2.00;1.90;;;6.30;99.90;;;;;;4993273;28;20241;-64
2021/12/09 01:52:30;;;;;;;1.97;1.87;;;6.30;99.90;;;;;;4992252;28;20799;-65
2021/12/09 01:54:57;;;;;;;2.13;2.03;;;6.30;99.90;;;;;;4992832;28;20593;-65
2021/12/09 01:57:24;;;;;;;1.70;1.60;;;6.30;99.90;;;;;;4992541;28;20233;-64
2021/12/09 01:59:51;;;;;;;1.70;1.60;;;6.30;99.90;;;;;;4992732;28;20640;-62
2021/12/09 02:02:18;;;;;;;2.20;2.00;;;6.30;99.90;;;;;;4992846;28;20667;-65
2021/12/09 02:04:45;;;;;;;2.00;1.90;;;6.30;99.90;;;;;;4992528;28;20206;-64
2021/12/09 02:07:12;;;;;;;1.80;1.70;;;6.30;99.90;;;;;;4992583;28;20297;-64
2021/12/09 02:09:41;;;;;;;1.80;1.70;;;6.30;99.90;;;;;;4992721;28;20263;-64
2021/12/09 02:12:08;;;;;;;2.00;1.80;;;6.30;99.90;;;;;;4992438;28;20727;-64
2021/12/09 02:14:37;;;;;;;1.80;1.70;;;6.30;99.90;;;;;;4992687;28;20210;-65
2021/12/09 02:17:04;;;;;;;1.80;1.70;;;6.40;99.90;;;;;;4991429;28;20210;-63
2021/12/09 02:19:31;;;;;;;1.57;1.50;;;6.40;99.90;;;;;;4992699;28;20320;-65
2021/12/09 02:22:00;;;;;;;1.73;1.63;;;6.50;99.90;;;;;;4995476;28;20288;-65
2021/12/09 02:24:27;;;;;;;1.70;1.60;;;6.50;99.90;;;;;;4993015;28;20229;-66
2021/12/09 02:26:54;;;;;;;1.70;1.60;;;6.60;99.90;;;;;;4992635;28;20225;-64
2021/12/09 02:29:21;;;;;;;1.60;1.50;;;6.60;99.90;;;;;;4994896;28;20237;-65
2021/12/09 02:31:51;;;;;;;1.57;1.47;;;6.80;99.90;;;;;;5008804;28;20226;-65
2021/12/09 02:34:17;;;;;;;1.70;1.60;;;6.70;99.90;;;;;;5003966;28;20206;-65
2021/12/09 02:36:45;;;;;;;1.60;1.50;;;6.70;99.90;;;;;;5005172;28;20230;-65
2021/12/09 02:39:15;;;;;;;1.60;1.50;;;6.70;99.90;;;;;;5005069;28;20206;-64
2021/12/09 02:41:43;;;;;;;1.80;1.70;;;6.70;99.90;;;;;;5004949;28;20268;-65
2021/12/09 02:44:13;;;;;;;1.60;1.50;;;6.60;99.90;;;;;;5003927;28;20226;-65
2021/12/09 02:46:40;;;;;;;1.60;1.50;;;6.70;99.90;;;;;;4998714;28;20250;-65
2021/12/09 02:49:10;;;;;;;1.50;1.40;;;6.70;99.90;;;;;;4993626;28;20783;-66
2021/12/09 02:51:37;;;;;;;1.60;1.50;;;6.70;99.90;;;;;;5014851;23;20737;-61
2021/12/09 02:54:05;;;;;;;1.73;1.63;;;6.70;99.90;;;;;;5041571;28;20308;-61
2021/12/09 02:56:34;;;;;;;1.87;1.73;;;6.70;99.90;;;;;;5051523;28;20254;-60
2021/12/09 02:59:01;;;;;;;1.80;1.70;;;6.70;99.90;;;;;;5051539;28;20208;-60
2021/12/09 03:01:31;;;;;;;1.57;1.47;;;6.80;99.90;;;;;;5051377;28;20219;-61
2021/12/09 03:04:00;;;;;;;1.70;1.60;;;6.80;99.90;;;;;;5052080;28;20593;-61
2021/12/09 03:06:33;;;;;;;1.53;1.43;;;6.80;99.90;;;;;;5055090;28;20208;-61
2021/12/09 03:09:02;;;;;;;1.60;1.50;;;6.80;99.90;;;;;;5057556;28;20227;-62
2021/12/09 03:11:30;;;;;;;1.50;1.40;;;6.80;99.90;;;;;;5047508;28;20229;-61
2021/12/09 03:13:59;;;;;;;1.40;1.40;;;6.70;99.90;;;;;;5035407;28;20296;-61
2021/12/09 03:16:26;;;;;;;1.63;1.40;;;6.60;99.90;;;;;;5034919;28;20300;-61
2021/12/09 03:18:55;;;;;;;1.43;1.30;;;6.60;99.90;;;;;;5034596;28;20236;-61
2021/12/09 03:21:25;;;;;;;1.27;1.27;;;6.60;99.90;;;;;;5034866;28;20569;-61
2021/12/09 03:23:52;;;;;;;1.30;1.30;;;6.60;99.90;;;;;;5034716;28;20220;-60
2021/12/09 03:26:25;;;;;;;1.37;1.30;;;6.60;99.90;;;;;;5032163;28;20586;-61
2021/12/09 03:28:52;;;;;;;1.00;1.00;;;6.50;99.90;;;;;;5037409;28;20653;-61
2021/12/09 03:31:20;;;;;;;1.40;1.30;;;6.50;99.90;;;;;;5035916;28;20248;-61
2021/12/09 03:33:47;;;;;;;1.30;1.20;;;6.50;99.90;;;;;;5038354;28;20825;-61
2021/12/09 03:36:14;;;;;;;1.50;1.40;;;6.50;99.90;;;;;;5040876;28;20242;-61
2021/12/09 03:38:42;;;;;;;1.40;1.30;;;6.50;99.90;;;;;;5054293;28;20854;-60
2021/12/09 03:41:09;;;;;;;1.23;1.20;;;6.50;99.90;;;;;;5054146;28;20335;-62
2021/12/09 03:43:37;;;;;;;1.27;1.27;;;6.50;99.90;;;;;;5053904;28;20220;-62
2021/12/09 03:46:05;;;;;;;1.50;1.40;;;6.60;99.90;;;;;;5053930;28;20204;-61
2021/12/09 03:48:33;;;;;;;1.40;1.30;;;6.50;99.90;;;;;;5053353;28;20626;-60
2021/12/09 03:51:00;;;;;;;1.10;1.10;;;6.60;99.90;;;;;;5045394;28;20725;-61
2021/12/09 03:53:27;;;;;;;1.60;1.50;;;6.80;99.90;;;;;;5053967;28;20747;-61
2021/12/09 03:55:54;;;;;;;1.23;1.23;;;6.80;99.90;;;;;;5053474;28;20412;-62
2021/12/09 03:58:21;;;;;;;1.20;1.20;;;6.80;99.90;;;;;;5053814;28;20230;-60
2021/12/09 04:00:49;;;;;;;1.63;1.30;;;6.70;99.90;;;;;;5054375;28;20200;-60
2021/12/09 04:03:18;;;;;;;1.37;1.27;;;6.80;99.90;;;;;;5053951;28;20315;-61
2021/12/09 04:05:47;;;;;;;1.17;1.17;;;6.80;99.90;;;;;;5054001;28;20214;-60
2021/12/09 04:08:14;;;;;;;1.20;1.20;;;6.70;99.90;;;;;;5053471;28;20294;-60
2021/12/09 04:10:42;;;;;;;1.00;1.00;;;6.70;99.90;;;;;;5053919;28;20299;-61
2021/12/09 04:13:08;;;;;;;1.00;1.00;;;6.70;99.90;;;;;;5053899;28;20199;-60
2021/12/09 04:15:35;;;;;;;1.23;1.17;;;6.70;99.90;;;;;;5053001;28;20723;-61
2021/12/09 04:18:03;;;;;;;1.10;1.10;;;6.70;99.90;;;;;;5053259;28;20230;-60
2021/12/09 04:20:30;;;;;;;1.00;1.00;;;6.70;99.90;;;;;;5053522;28;20239;-59
2021/12/09 04:22:59;;;;;;;1.17;1.17;;;6.60;99.90;;;;;;5053450;28;20267;-60
2021/12/09 04:25:26;;;;;;;1.27;1.27;;;6.60;99.90;;;;;;5053209;28;20765;-60
2021/12/09 04:27:55;;;;;;;1.30;1.20;;;6.70;99.90;;;;;;5053259;28;20307;-60
2021/12/09 04:30:23;;;;;;;1.20;1.20;;;6.80;99.90;;;;;;5054493;28;20204;-60
2021/12/09 04:32:51;;;;;;;1.20;1.20;;;6.80;99.90;;;;;;5053158;28;20597;-60
2021/12/09 04:35:18;;;;;;;1.40;1.30;;;6.90;99.90;;;;;;5054914;28;20303;-61
2021/12/09 04:37:45;;;;;;;1.13;1.10;;;6.90;99.90;;;;;;5058365;28;20634;-62
2021/12/09 04:40:14;;;;;;;1.13;1.13;;;6.80;99.90;;;;;;5059829;28;20613;-60
2021/12/09 04:42:42;;;;;;;0.97;0.97;;;6.70;99.90;;;;;;5059407;28;20323;-60
2021/12/09 04:45:11;;;;;;;1.03;1.03;;;6.70;99.90;;;;;;5063475;28;20297;-60
2021/12/09 04:47:40;;;;;;;1.10;1.10;;;6.70;99.90;;;;;;5060495;28;20204;-60
2021/12/09 04:50:08;;;;;;;0.93;0.93;;;6.60;99.90;;;;;;5055557;28;20204;-61
2021/12/09 04:52:35;;;;;;;1.13;1.10;;;6.60;99.90;;;;;;5031910;28;20371;-60
2021/12/09 04:55:03;;;;;;;0.90;0.90;;;6.60;99.90;;;;;;5031115;28;20292;-61
2021/12/09 04:57:31;;;;;;;1.13;1.13;;;6.60;99.90;;;;;;5034419;28;20197;-60
2021/12/09 04:59:58;;;;;;;1.10;1.10;;;6.60;99.90;;;;;;5052742;28;20303;-60
2021/12/09 05:02:30;;;;;;;1.50;1.40;;;6.60;99.90;;;;;;5052623;28;20383;-61
2021/12/09 05:04:57;;;;;;;1.60;1.50;;;6.50;99.90;;;;;;5052794;28;20251;-60
2021/12/09 05:07:24;;;;;;;1.27;1.20;;;6.40;99.90;;;;;;5052334;28;20290;-60
2021/12/09 05:09:52;;;;;;;1.40;1.30;;;6.20;99.90;;;;;;5052548;28;20258;-60
2021/12/09 05:12:21;;;;;;;1.30;1.20;;;6.10;99.90;;;;;;5052609;28;20286;-60
2021/12/09 05:14:50;;;;;;;1.33;1.23;;;6.10;99.90;;;;;;5052469;28;20615;-61
2021/12/09 05:17:18;;;;;;;1.10;1.10;;;6.10;99.90;;;;;;5052466;28;20298;-61
2021/12/09 05:19:46;;;;;;;1.30;1.30;;;6.10;99.90;;;;;;5052427;28;20294;-62
2021/12/09 05:22:13;;;;;;;1.63;1.53;;;6.10;99.90;;;;;;5053309;28;20311;-61
2021/12/09 05:24:40;;;;;;;1.50;1.40;;;6.00;99.90;;;;;;5052540;28;20698;-61
2021/12/09 05:27:10;;;;;;;2.37;1.50;;;5.90;99.90;;;;;;5052564;28;20247;-61
2021/12/09 05:29:39;;;;;;;1.80;1.70;;;5.80;99.90;;;;;;5052644;28;20290;-61
2021/12/09 05:32:10;;;;;;;1.70;1.60;;;5.80;99.90;;;;;;5051941;28;20277;-61
2021/12/09 05:34:40;;;;;;;1.60;1.50;;;5.80;99.90;;;;;;5052312;28;20204;-61
2021/12/09 05:37:08;;;;;;;1.57;1.47;;;5.90;99.90;;;;;;5052647;28;20204;-60
2021/12/09 05:39:36;;;;;;;1.57;1.50;;;6.00;99.90;;;;;;5052506;28;20340;-60
2021/12/09 05:42:04;;;;;;;1.47;1.43;;;6.10;99.90;;;;;;5041904;28;20274;-60
2021/12/09 05:44:31;;;;;;;1.10;1.10;;;6.10;99.90;;;;;;5034580;28;20303;-61
2021/12/09 05:46:59;;;;;;;1.47;1.37;;;6.10;99.90;;;;;;5040147;28;20748;-60
2021/12/09 05:49:27;;;;;;;1.40;1.40;;;6.10;99.90;;;;;;5041415;28;20295;-61
2021/12/09 05:51:54;;;;;;;1.20;1.20;;;6.20;99.90;;;;;;5043909;28;20258;-59
2021/12/09 05:54:22;;;;;;;1.57;1.47;;;6.20;99.90;;;;;;5031238;28;20204;-61
2021/12/09 05:56:50;;;;;;;1.50;1.40;;;6.20;99.90;;;;;;5049284;28;20192;-61
2021/12/09 05:59:17;;;;;;;1.30;1.30;;;6.30;99.90;;;;;;5050240;28;20203;-61
2021/12/09 06:01:44;;;;;;;1.20;1.20;;;6.20;99.90;;;;;;5051011;28;20220;-60
2021/12/09 06:04:12;;;;;;;1.47;1.37;;;6.20;99.90;;;;;;5052406;28;20223;-61
2021/12/09 06:06:41;;;;;;;1.50;1.40;;;6.10;99.90;;;;;;5052267;28;20255;-60
2021/12/09 06:09:10;;;;;;;1.07;1.07;;;6.00;99.90;;;;;;5052155;28;20212;-60
2021/12/09 06:11:37;;;;;;;1.40;1.30;;;5.90;99.90;;;;;;5052088;28;20335;-61
2021/12/09 06:14:05;;;;;;;1.20;1.20;;;5.90;99.90;;;;;;5051826;28;20317;-60
2021/12/09 06:16:32;;;;;;;1.50;1.40;;;5.80;99.90;;;;;;5052452;28;20200;-60
2021/12/09 06:19:01;;;;;;;1.60;1.40;;;5.80;99.90;;;;;;5052865;28;20203;-60
2021/12/09 06:21:28;;;;;;;1.30;1.20;;;5.70;99.90;;;;;;5052366;28;20262;-60
2021/12/09 06:24:00;;;;;;;1.23;1.23;;;5.70;99.90;;;;;;5052495;28;20262;-61
2021/12/09 06:26:28;;;;;;;1.40;1.30;;;5.70;99.90;;;;;;5038321;28;20250;-61
2021/12/09 06:28:55;;;;;;;1.20;1.20;;;5.70;99.90;;;;;;5031998;28;20287;-61
2021/12/09 06:31:22;;;;;;;1.50;1.40;;;5.70;99.90;;;;;;5031751;28;20256;-61
2021/12/09 06:33:50;;;;;;;1.30;1.20;;;5.70;99.90;;;;;;5033793;28;20197;-59
2021/12/09 06:36:18;;;;;;;1.50;1.40;;;5.60;99.90;;;;;;5051726;28;20648;-61
2021/12/09 06:38:45;;;;;;;1.43;1.33;;;5.70;99.90;;;;;;5052279;28;20203;-60
2021/12/09 06:41:13;;;;;;;1.10;1.10;;;5.70;99.90;;;;;;5055385;28;20322;-59
2021/12/09 06:43:41;;;;;;;1.37;1.30;;;5.70;99.90;;;;;;5055843;28;20232;-60
2021/12/09 06:46:10;;;;;;;1.20;1.20;;;5.70;99.90;;;;;;5049398;28;20208;-60
2021/12/09 06:48:37;;;;;;;1.10;1.10;;;5.80;99.90;;;;;;5055171;28;20212;-60
2021/12/09 06:51:06;;;;;;;1.30;1.30;;;5.80;99.90;;;;;;5058628;28;20244;-60
2021/12/09 06:53:33;;;;;;;1.20;1.20;;;5.80;99.90;;;;;;5055139;28;20188;-61
2021/12/09 06:56:00;;;;;;;1.50;1.40;;;5.80;99.90;;;;;;5055194;28;20299;-62
2021/12/09 06:58:29;;;;;;;1.20;1.10;;;5.80;99.90;;;;;;5055670;28;20655;-59
2021/12/09 07:00:57;;;;;;;1.20;1.20;;;5.80;99.90;;;;;;5055044;28;20287;-61
2021/12/09 07:03:24;;;;;;;1.23;1.20;;;5.80;99.90;;;;;;5055282;28;20290;-60
2021/12/09 07:05:53;;;;;;;1.20;1.20;;;5.80;99.90;;;;;;5054613;28;20315;-61
2021/12/09 07:08:20;;;;;;;1.33;1.30;;;5.80;99.90;;;;;;5054786;28;20291;-60
2021/12/09 07:10:48;;;;;;;1.10;1.10;;;5.80;99.90;;;;;;5055210;28;20258;-60
2021/12/09 07:13:15;;;;;;;1.60;1.47;;;5.70;99.90;;;;;;5055146;28;20218;-61
2021/12/09 07:15:44;;;;;;;1.10;1.10;;;5.70;99.90;;;;;;5054755;28;20207;-63
2021/12/09 07:18:11;;;;;;;1.27;1.27;;;5.80;99.90;;;;;;5054255;28;20214;-60
2021/12/09 07:20:38;;;;;;;1.30;1.20;;;5.80;99.90;;;;;;5054779;28;20204;-63
2021/12/09 07:23:05;;;;;;;1.50;1.40;;;5.80;99.90;;;;;;5054536;28;20640;-61
2021/12/09 07:25:32;;;;;;;1.50;1.40;;;5.80;99.90;;;;;;5054635;28;20224;-62
2021/12/09 07:27:59;;;;;;;1.00;1.00;;;5.90;99.90;;;;;;5054054;28;20290;-62
2021/12/09 07:30:28;;;;;;;1.10;1.00;;;5.90;99.90;;;;;;5054373;28;20215;-63
2021/12/09 07:32:57;;;;;;;1.20;1.20;;;5.90;99.90;;;;;;5054870;28;20319;-62
2021/12/09 07:35:26;;;;;;;1.10;1.10;;;6.00;99.90;;;;;;5055292;28;20226;-62
2021/12/09 07:37:53;;;;;;;1.10;1.10;;;6.00;99.90;;;;;;5054688;28;20559;-60
2021/12/09 07:40:20;;;;;;;1.10;1.10;;;6.00;99.90;;;;;;5055258;28;20204;-60
2021/12/09 07:42:47;;;;;;;1.63;1.53;;;6.00;99.90;;;;;;5054214;28;20259;-61
2021/12/09 07:45:16;;;;;;;1.80;1.70;;;6.00;99.90;;;;;;5054549;28;20231;-61
2021/12/09 07:47:44;;;;;;;1.70;1.60;;;6.00;99.90;;;;;;5054028;28;20254;-61
2021/12/09 07:50:14;;;;;;;1.50;1.40;;;6.00;99.90;;;;;;5053833;28;20606;-61
2021/12/09 07:52:42;;;;;;;1.13;1.13;;;6.00;99.90;;;;;;5053334;28;20285;-60
2021/12/09 07:55:10;;;;;;;1.33;1.20;;;6.00;99.90;;;;;;5054148;28;20258;-60
2021/12/09 07:57:37;;;;;;;1.13;1.13;;;6.00;99.90;;;;;;5053748;28;20702;-61
2021/12/09 08:00:06;;;;;;;1.40;1.30;;;6.00;99.90;;;;;;5053502;28;20682;-61
2021/12/09 08:02:33;;;;;;;1.20;1.20;;;6.00;99.90;;;;;;5039713;28;20303;-60
2021/12/09 08:05:00;;;;;;;1.30;1.30;;;6.10;99.90;;;;;;5053674;28;20762;-61
2021/12/09 08:07:28;;;;;;;1.00;1.00;;;6.00;99.90;;;;;;5048888;28;20291;-61
2021/12/09 08:09:55;;;;;;;1.33;1.27;;;6.00;99.90;;;;;;5053639;28;20292;-60
2021/12/09 08:12:22;;;;;;;1.60;1.50;;;6.00;99.90;;;;;;5049985;28;20310;-60
2021/12/09 08:14:49;;;;;;;1.30;1.30;;;6.00;99.90;;;;;;5053977;28;20238;-60
2021/12/09 08:17:44;;;;;;;1.37;1.30;;;6.10;99.90;;;;;;5050407;28;20250;-61
2021/12/09 08:20:12;;;;;;;1.30;1.23;;;6.10;99.90;;;;;;5054747;28;20196;-60
2021/12/09 08:22:42;;;;;;;1.47;1.20;;;6.10;99.90;;;;;;5051267;28;20626;-60
2021/12/09 08:25:12;;;;;;;1.20;1.20;;;6.10;99.90;;;;;;5049968;28;20294;-61
2021/12/09 08:27:39;;;;;;;1.50;1.40;;;6.10;99.90;;;;;;5059174;28;20204;-60
2021/12/09 08:30:08;;;;;;;1.33;1.23;;;6.20;99.90;;;;;;5059895;28;20204;-60
2021/12/09 08:32:35;;;;;;;1.10;1.10;;;6.20;99.90;;;;;;5050518;28;20670;-60
2021/12/09 08:35:02;;;;;;;1.40;1.30;;;6.20;99.90;;;;;;5049445;28;20239;-61
2021/12/09 08:37:29;;;;;;;1.27;1.27;;;6.20;99.90;;;;;;5052644;28;20208;-61
2021/12/09 08:39:59;;;;;;;1.40;1.30;;;6.30;99.90;;;;;;5048703;28;20203;-61
2021/12/09 08:42:26;;;;;;;1.43;1.30;;;6.20;99.90;;;;;;5053067;28;20662;-61
2021/12/09 08:44:53;;;;;;;1.37;1.30;;;6.30;99.90;;;;;;5048890;28;20314;-61
2021/12/09 08:47:20;;;;;;;1.10;1.10;;;6.30;99.90;;;;;;5049329;28;20208;-60
2021/12/09 08:49:47;;;;;;;1.20;1.20;;;6.30;99.90;;;;;;5034397;28;20645;-60
2021/12/09 08:52:16;;;;;;;1.37;1.37;;;6.40;99.90;;;;;;5051277;23;20248;-65
2021/12/09 08:54:43;;;;;;;1.10;1.10;;;6.40;99.90;;;;;;5034439;28;20613;-65
2021/12/09 08:57:12;;;;;;;1.10;1.10;;;6.50;99.90;;;;;;5033143;28;20240;-65
2021/12/09 08:59:39;;;;;;;1.20;1.20;;;6.50;99.90;;;;;;5044768;28;20208;-66
2021/12/09 09:02:06;;;;;;;1.10;1.10;;;6.50;99.90;;;;;;5050079;28;20228;-66
2021/12/09 09:04:33;;;;;;;1.60;1.20;;;6.60;99.90;;;;;;5046992;28;20252;-66
2021/12/09 09:07:01;;;;;;;1.23;1.23;;;6.60;99.90;;;;;;5040867;28;20270;-66
2021/12/09 09:09:33;;;;;;;1.27;1.17;;;6.70;99.90;;;;;;5044818;28;20647;-65
2021/12/09 09:12:00;;;;;;;1.03;1.03;;;6.70;99.90;;;;;;5043730;28;20631;-66
2021/12/09 09:14:29;;;;;;;1.30;1.20;;;6.70;99.90;;;;;;5046382;28;20199;-65
2021/12/09 09:16:56;;;;;;;0.97;0.97;;;6.70;99.90;;;;;;5048622;28;20231;-66
2021/12/09 09:19:23;;;;;;;1.10;1.10;;;6.80;99.90;;;;;;5049431;28;20757;-66
2021/12/09 09:21:50;;;;;;;1.10;1.10;;;6.80;99.90;;;;;;5052925;28;20227;-64
2021/12/09 09:24:17;;;;;;;1.00;1.00;;;6.70;99.90;;;;;;5043419;28;20207;-66
2021/12/09 09:26:44;;;;;;;0.90;0.90;;;6.70;99.90;;;;;;5049721;28;20295;-65
2021/12/09 09:29:11;;;;;;;1.00;1.00;;;6.70;99.90;;;;;;5048895;28;20238;-65
2021/12/09 09:31:41;;;;;;;1.10;1.10;;;6.70;99.90;;;;;;5052238;28;20306;-66
2021/12/09 09:34:10;;;;;;;1.10;1.10;;;6.80;99.90;;;;;;5052342;28;20200;-66
2021/12/09 09:36:39;;;;;;;1.00;1.00;;;6.70;99.90;;;;;;5045357;28;20207;-65
2021/12/09 09:39:17;;;;;;;0.83;0.83;;;6.60;99.90;;;;;;5045136;28;20204;-66
2021/12/09 09:41:45;;;;;;;1.37;1.27;;;6.60;99.90;;;;;;5048608;28;20220;-65
2021/12/09 09:44:15;;;;;;;1.23;1.20;;;6.60;99.90;;;;;;5049398;28;20205;-66
2021/12/09 09:46:44;;;;;;;1.00;1.00;;;6.70;99.90;;;;;;5051892;28;20228;-65
2021/12/09 09:49:12;;;;;;;1.20;1.20;;;6.80;99.90;;;;;;5037840;28;20243;-65
2021/12/09 09:51:39;;;;;;;1.00;1.00;;;6.90;99.90;;;;;;5047865;28;20235;-65
2021/12/09 09:54:08;;;;;;;1.03;1.03;;;6.90;99.90;;;;;;5041306;28;20207;-65
2021/12/09 09:56:40;;;;;;;0.90;0.90;;;6.90;99.90;;;;;;5048829;28;20603;-66
2021/12/09 09:59:10;;;;;;;1.10;1.10;;;6.90;99.90;;;;;;5044638;28;20213;-66
2021/12/09 10:01:38;;;;;;;1.20;1.20;;;6.90;99.90;;;;;;5047953;28;20223;-64
2021/12/09 10:04:13;;;;;;;0.97;0.97;;;6.90;99.90;;;;;;5050703;28;20282;-65
2021/12/09 10:06:42;;;;;;;0.90;0.90;;;7.00;99.90;;;;;;5051820;28;20223;-65
2021/12/09 10:09:11;;;;;;;1.20;1.20;;;7.00;99.90;;;;;;5043215;28;20208;-64
2021/12/09 10:11:38;;;;;;;0.90;0.90;;;7.10;99.90;;;;;;5050872;28;20335;-66
2021/12/09 10:14:13;;;;;;;1.30;1.30;;;7.10;99.90;;;;;;5048589;28;20206;-66
2021/12/09 10:16:42;;;;;;;1.20;1.20;;;7.10;99.90;;;;;;5048762;28;20199;-65
2021/12/09 10:19:20;;;;;;;1.00;1.00;;;7.10;99.90;;;;;;5037902;28;20548;-67
2021/12/09 10:21:49;;;;;;;1.17;1.10;;;7.20;99.90;;;;;;5042672;28;20654;-65
2021/12/09 10:24:17;;;;;;;1.07;1.07;;;7.20;99.90;;;;;;5042363;28;20619;-67
2021/12/09 10:26:46;;;;;;;1.40;1.20;;;7.20;99.90;;;;;;5042881;28;20223;-67
2021/12/09 10:29:18;;;;;;;1.30;1.20;;;7.30;99.90;;;;;;5048785;28;20614;-66
2021/12/09 10:31:49;;;;;;;1.10;1.10;;;7.20;99.90;;;;;;5053749;28;20238;-67
2021/12/09 10:34:35;;;;;;;1.10;1.10;;;7.20;99.90;;;;;;5050002;28;20196;-66
2021/12/09 10:37:09;;;;;;;1.40;1.30;;;7.10;99.90;;;;;;5016426;28;20276;-65
2021/12/09 10:39:46;;;;;;;1.00;1.00;;;7.10;99.90;;;;;;5015689;28;20257;-66
2021/12/09 10:42:17;;;;;;;1.40;1.30;;;7.10;99.90;;;;;;5015468;28;20251;-66
2021/12/09 10:44:48;;;;;;;1.10;1.10;;;7.10;99.90;;;;;;5015898;28;20297;-67
2021/12/09 10:47:22;;;;;;;1.10;1.10;;;7.20;99.90;;;;;;5015713;28;20229;-66
2021/12/09 10:50:09;;;;;;;1.10;1.10;;;7.40;99.90;;;;;;5016282;28;20232;-65
2021/12/09 10:52:42;;;;;;;1.40;1.30;;;7.50;99.90;;;;;;5015542;28;20348;-66
2021/12/09 10:55:19;;;;;;;1.20;1.20;;;7.60;99.90;;;;;;5015517;28;20328;-66
2021/12/09 10:57:53;;;;;;;1.40;1.30;;;7.70;99.90;;;;;;5014998;28;20658;-65
2021/12/09 11:00:24;;;;;;;1.20;1.20;;;7.70;99.90;;;;;;5016198;28;20224;-64
2021/12/09 11:03:13;;;;;;;1.00;1.00;;;7.80;99.90;;;;;;5015603;28;20256;-67
2021/12/09 11:05:45;;;;;;;1.20;1.20;;;8.00;99.90;;;;;;5013005;28;20239;-66
2021/12/09 11:08:19;;;;;;;1.07;1.07;;;8.10;99.90;;;;;;5015597;28;20233;-66
2021/12/09 11:10:48;;;;;;;1.10;1.10;;;8.20;99.90;;;;;;5016345;28;20251;-66
2021/12/09 11:13:18;;;;;;;0.97;0.97;;;8.30;99.90;;;;;;5016908;28;20228;-68
2021/12/09 11:15:56;;;;;;;1.00;1.00;;;8.30;99.90;;;;;;5035057;28;20199;-66
2021/12/09 11:18:31;;;;;;;1.30;1.20;;;8.30;99.90;;;;;;5034238;28;20197;-66
2021/12/09 11:21:01;;;;;;;1.10;1.10;;;8.30;99.90;;;;;;5035394;28;20216;-66
2021/12/09 11:23:31;;;;;;;1.10;1.10;;;8.20;99.90;;;;;;5034614;28;20271;-67
2021/12/09 11:26:18;;;;;;;1.80;1.20;;;8.30;99.90;;;;;;5033589;28;20220;-66
2021/12/09 11:28:55;;;;;;;1.20;1.20;;;8.30;99.90;;;;;;5031517;28;20205;-66
2021/12/09 11:31:24;;;;;;;1.00;1.00;;;8.40;99.90;;;;;;5034876;28;20220;-67
2021/12/09 11:33:58;;;;;;;1.23;1.13;;;8.30;99.90;;;;;;5034137;28;20410;-65
2021/12/09 11:39:26;;;;;;;1.00;1.00;;;8.30;99.90;;;;;;5089016;28;20544;-66
2021/12/09 11:41:53;;;;;;;1.17;1.17;;;8.20;99.90;;;;;;5088008;28;20218;-66
2021/12/09 11:44:20;;;;;;;1.50;1.40;;;8.30;99.90;;;;;;5092290;28;20237;-65
2021/12/09 11:46:48;;;;;;;1.33;1.23;;;8.20;99.90;;;;;;5099032;28;20274;-66
2021/12/09 11:49:15;;;;;;;1.27;1.20;;;8.00;99.90;;;;;;5095377;28;20237;-66
2021/12/09 11:51:42;;;;;;;1.00;1.00;;;8.00;99.90;;;;;;5091210;28;20266;-67
2021/12/09 11:54:11;;;;;;;1.20;1.20;;;8.00;99.90;;;;;;5095182;28;20202;-65
2021/12/09 11:56:56;;;;;;;1.03;1.03;;;8.10;99.90;;;;;;5088511;28;20206;-67
2021/12/09 12:06:39;;;;;;;1.37;1.27;;;8.10;99.90;;;;;;5088653;28;20206;-67
2021/12/09 12:11:39;;;;;;;1.30;1.20;;;8.50;99.90;;;;;;5088464;28;20225;-66
2021/12/09 12:14:29;;;;;;;2.40;1.67;;;8.40;99.90;;;;;;5089936;28;20199;-68
2021/12/09 12:20:09;;;;;;;1.10;1.10;;;8.50;99.90;;;;;;5086716;28;20187;-67
2021/12/09 12:22:51;;;;;;;1.00;1.00;;;8.50;99.90;;;;;;5087470;28;20227;-67
2021/12/09 12:26:01;;;;;;;1.20;1.20;;;8.60;99.90;;;;;;5090205;28;20640;-66
2021/12/09 12:28:37;;;;;;;1.20;1.13;;;8.70;99.90;;;;;;5087143;28;20237;-66
2021/12/09 12:34:05;;;;;;;1.40;1.30;;;8.70;99.90;;;;;;5085313;28;20198;-66
2021/12/09 12:37:08;;;;;;;1.50;1.40;;;8.80;99.90;;;;;;5087287;28;20255;-65
2021/12/09 12:39:56;;;;;;;1.37;1.30;;;8.80;99.90;;;;;;5088249;28;20265;-66
2021/12/09 12:42:37;;;;;;;1.30;1.20;;;8.80;99.90;;;;;;5088996;28;20239;-65
2021/12/09 12:45:55;;;;;;;1.13;1.13;;;8.70;99.90;;;;;;5097815;28;20191;-65
2021/12/09 12:49:04;;;;;;;1.17;1.07;;;8.60;99.90;;;;;;5078920;28;20201;-66
2021/12/09 12:51:35;;;;;;;1.27;1.20;;;8.60;99.90;;;;;;5091209;28;20287;-65
2021/12/09 12:54:24;;;;;;;1.20;1.10;;;8.60;99.90;;;;;;5090525;28;20626;-67
2021/12/09 12:56:56;;;;;;;1.00;1.00;;;8.60;99.90;;;;;;5077710;28;20191;-64
2021/12/09 12:59:29;;;;;;;1.20;1.10;;;8.60;99.90;;;;;;5076409;28;20675;-66
2021/12/09 13:02:18;;;;;;;1.40;1.30;;;8.60;99.90;;;;;;5073824;28;20602;-66
2021/12/09 13:04:59;;;;;;;1.30;1.20;;;8.60;99.90;;;;;;5071938;28;20207;-65
2021/12/09 13:07:38;;;;;;;1.30;1.20;;;8.60;99.90;;;;;;5073104;28;20245;-66
2021/12/09 13:10:29;;;;;;;1.40;1.30;;;8.70;99.90;;;;;;5083120;28;20203;-65
2021/12/09 13:13:06;;;;;;;1.20;1.20;;;8.70;99.90;;;;;;5090668;28;20306;-65
2021/12/09 13:15:43;;;;;;;1.20;1.20;;;8.60;99.90;;;;;;5090975;28;20256;-65
2021/12/09 13:18:41;;;;;;;1.40;1.30;;;8.60;99.90;;;;;;5081764;28;20298;-65
2021/12/09 13:21:47;;;;;;;1.10;1.10;;;8.60;99.90;;;;;;5053684;28;20205;-66
2021/12/09 13:24:33;;;;;;;1.00;1.00;;;8.60;99.90;;;;;;5053146;28;20193;-65
2021/12/09 13:27:22;;;;;;;1.17;1.17;;;8.60;99.90;;;;;;5051613;28;20666;-66
2021/12/09 13:30:06;;;;;;;1.00;1.00;;;8.60;99.90;;;;;;5053261;28;20200;-65
2021/12/09 13:35:47;;;;;;;1.40;1.30;;;8.50;99.90;;;;;;5048613;28;20232;-65